Time;durP1;ratioP1;P1;durP2;ratioP2;P2;SDS_P1;SDS_P2;PMS_P1;PMS_P2;Temp;Humidity;BMP_temperature;BMP_pressure;BME280_temperature;BME280_humidity;BME280_pressure;Samples;Min_cycle;Max_cycle;Signal;HPM_P1;HPM_P2
2023/04/19 00:02:02;;;;;;;9.93;8.52;;;6.20;99.90;;;;;;4895492;29;20436;-92
2023/04/19 00:04:28;;;;;;;9.70;8.73;;;6.60;99.90;;;;;;4896559;29;20905;-91
2023/04/19 00:06:55;;;;;;;9.40;8.40;;;6.20;99.90;;;;;;4895969;29;20480;-91
2023/04/19 00:09:21;;;;;;;9.75;8.82;;;6.00;99.90;;;;;;4911580;29;20506;-92
2023/04/19 00:11:46;;;;;;;9.30;8.27;;;5.70;99.90;;;;;;4912125;29;20567;-91
2023/04/19 00:14:12;;;;;;;8.55;7.65;;;6.00;99.90;;;;;;4895502;29;20472;-93
2023/04/19 00:16:38;;;;;;;9.18;8.23;;;6.10;99.90;;;;;;4897008;29;20412;-91
2023/04/19 00:19:03;;;;;;;9.93;8.93;;;6.00;99.90;;;;;;4894693;29;20951;-92
2023/04/19 00:21:30;;;;;;;10.10;8.80;;;6.10;99.90;;;;;;4896536;29;20475;-92
2023/04/19 00:23:55;;;;;;;9.98;8.18;;;6.20;99.90;;;;;;4895288;29;20415;-93
2023/04/19 00:26:21;;;;;;;9.47;8.33;;;5.90;99.90;;;;;;4895946;29;20442;-92
2023/04/19 00:28:47;;;;;;;8.77;7.93;;;6.10;99.90;;;;;;4896021;29;20516;-92
2023/04/19 00:31:12;;;;;;;10.77;9.48;;;5.90;99.90;;;;;;4895889;29;20415;-92
2023/04/19 00:33:38;;;;;;;10.57;9.10;;;6.00;99.90;;;;;;4896530;29;20426;-91
2023/04/19 00:36:04;;;;;;;9.70;8.60;;;6.40;99.90;;;;;;4895024;29;20976;-92
2023/04/19 00:38:29;;;;;;;10.93;9.20;;;5.90;99.90;;;;;;4896398;29;20412;-91
2023/04/19 00:40:55;;;;;;;10.27;9.18;;;5.90;99.90;;;;;;4895042;29;20471;-91
2023/04/19 00:43:21;;;;;;;10.30;9.23;;;5.80;99.90;;;;;;4895921;29;20427;-93
2023/04/19 00:45:48;;;;;;;11.10;9.77;;;5.90;99.90;;;;;;4894436;29;20474;-92
2023/04/19 00:48:14;;;;;;;10.48;9.20;;;5.80;99.90;;;;;;4894906;29;20416;-92
2023/04/19 00:50:42;;;;;;;10.85;9.13;;;6.00;99.90;;;;;;4895718;29;20502;-93
2023/04/19 00:53:08;;;;;;;10.37;9.00;;;6.00;99.90;;;;;;4895114;29;20540;-94
2023/04/19 00:55:34;;;;;;;11.70;10.47;;;5.80;99.90;;;;;;4896259;29;20452;-90
2023/04/19 00:58:00;;;;;;;11.87;10.30;;;5.80;99.90;;;;;;4894129;29;20411;-94
2023/04/19 01:00:25;;;;;;;11.83;10.23;;;5.90;99.90;;;;;;4895110;29;20447;-94
2023/04/19 01:02:51;;;;;;;11.75;9.80;;;5.70;99.90;;;;;;4894781;29;20415;-94
2023/04/19 01:05:17;;;;;;;11.48;9.45;;;6.20;99.90;;;;;;4894757;29;20592;-94
2023/04/19 01:07:42;;;;;;;11.53;10.20;;;5.70;99.90;;;;;;4894715;29;20470;-95
2023/04/19 01:10:09;;;;;;;13.37;11.30;;;5.80;99.90;;;;;;4895093;29;20418;-94
2023/04/19 01:12:58;;;;;;;12.50;10.30;;;5.70;99.90;;;;;;4896678;29;20503;-95
2023/04/19 01:15:23;;;;;;;12.35;10.18;;;5.80;99.90;;;;;;4886044;29;20423;-96
2023/04/19 01:17:52;;;;;;;11.77;10.57;;;5.80;99.90;;;;;;4896878;29;20415;-95
2023/04/19 01:20:18;;;;;;;13.57;11.23;;;5.90;99.90;;;;;;4894729;29;20435;-93
2023/04/19 01:22:43;;;;;;;12.93;11.57;;;5.90;99.90;;;;;;4895327;29;20412;-94
2023/04/19 01:25:10;;;;;;;11.13;9.90;;;5.90;99.90;;;;;;4894825;29;20420;-94
2023/04/19 01:27:35;;;;;;;12.07;10.77;;;5.90;99.90;;;;;;4894788;29;20416;-93
2023/04/19 01:30:01;;;;;;;12.73;11.38;;;5.90;99.90;;;;;;4894637;29;20422;-92
2023/04/19 01:32:27;;;;;;;14.93;11.40;;;5.70;99.90;;;;;;4894626;29;20423;-93
2023/04/19 01:34:53;;;;;;;12.90;11.60;;;6.00;99.90;;;;;;4911648;29;20414;-94
2023/04/19 01:37:18;;;;;;;14.00;11.38;;;5.80;99.90;;;;;;4893561;29;20423;-95
2023/04/19 01:39:44;;;;;;;13.10;11.57;;;5.80;99.90;;;;;;4896253;29;20459;-95
2023/04/19 01:42:22;;;;;;;15.27;12.07;;;5.80;99.90;;;;;;4899284;29;20431;-95
2023/04/19 01:44:47;;;;;;;12.98;11.50;;;5.80;99.90;;;;;;4899331;29;20411;-92
2023/04/19 01:47:16;;;;;;;14.80;13.02;;;5.80;99.90;;;;;;4896275;29;20423;-95
2023/04/19 01:50:09;;;;;;;16.70;13.90;;;6.00;99.90;;;;;;4897138;29;21010;-96
2023/04/19 01:52:40;;;;;;;17.48;14.65;;;5.70;99.90;;;;;;4898684;29;20458;-95
2023/04/19 01:55:06;;;;;;;17.20;14.85;;;5.70;99.90;;;;;;4898451;29;20415;-95
2023/04/19 01:57:32;;;;;;;16.73;14.93;;;5.80;99.90;;;;;;4901061;29;20423;-96
2023/04/19 02:00:01;;;;;;;18.48;15.60;;;6.20;99.90;;;;;;4897528;29;20606;-95
2023/04/19 02:02:51;;;;;;;17.85;15.43;;;5.80;99.90;;;;;;4899897;29;20427;-95
2023/04/19 02:05:16;;;;;;;17.50;15.37;;;5.90;99.90;;;;;;4898570;29;20777;-92
2023/04/19 02:07:42;;;;;;;19.57;16.07;;;5.90;99.90;;;;;;4904150;29;20427;-92
2023/04/19 02:10:11;;;;;;;19.27;16.35;;;5.90;99.90;;;;;;4898682;29;20404;-95
2023/04/19 02:12:40;;;;;;;19.42;17.02;;;5.80;99.90;;;;;;4903709;29;20423;-96
2023/04/19 02:15:11;;;;;;;18.67;15.90;;;6.00;99.90;;;;;;4898638;29;20416;-95
2023/04/19 02:17:49;;;;;;;20.42;16.90;;;5.90;99.90;;;;;;4900384;29;20417;-96
2023/04/19 02:20:15;;;;;;;20.90;17.80;;;6.00;99.90;;;;;;4899709;29;20549;-93
2023/04/19 02:22:42;;;;;;;19.88;17.77;;;5.90;99.90;;;;;;4901925;29;20467;-91
2023/04/19 02:25:08;;;;;;;19.23;16.35;;;5.80;99.90;;;;;;4900969;29;20662;-93
2023/04/19 02:27:34;;;;;;;20.70;17.33;;;5.80;99.90;;;;;;4901276;29;20447;-93
2023/04/19 02:30:02;;;;;;;21.55;17.02;;;5.90;99.90;;;;;;4898100;29;20683;-95
2023/04/19 02:32:28;;;;;;;17.85;15.95;;;5.80;99.90;;;;;;4899107;29;20407;-91
2023/04/19 02:34:53;;;;;;;19.15;16.02;;;5.90;99.90;;;;;;4899231;29;20478;-93
2023/04/19 02:37:19;;;;;;;17.77;15.90;;;5.80;99.90;;;;;;4897802;29;20450;-92
2023/04/19 02:39:45;;;;;;;19.30;16.30;;;5.70;99.90;;;;;;4900519;29;20451;-92
2023/04/19 02:42:13;;;;;;;20.77;16.93;;;5.70;99.90;;;;;;4898524;29;20649;-93
2023/04/19 02:44:39;;;;;;;19.42;16.10;;;5.80;99.90;;;;;;4898855;29;20490;-91
2023/04/19 02:47:08;;;;;;;17.90;15.60;;;6.20;99.90;;;;;;4897358;29;20470;-96
2023/04/19 02:49:35;;;;;;;18.95;15.63;;;5.80;99.90;;;;;;4899907;29;20419;-93
2023/04/19 02:52:01;;;;;;;18.57;16.13;;;5.70;99.90;;;;;;4898473;29;20432;-94
2023/04/19 02:54:27;;;;;;;19.87;16.07;;;5.90;99.90;;;;;;4898492;29;20773;-92
2023/04/19 02:56:56;;;;;;;18.20;15.30;;;5.90;99.90;;;;;;4915118;29;21053;-95
2023/04/19 02:59:22;;;;;;;18.60;15.85;;;5.80;99.90;;;;;;4899152;29;20431;-94
2023/04/19 03:01:47;;;;;;;18.23;15.47;;;5.70;99.90;;;;;;4898112;29;20446;-93
2023/04/19 03:04:35;;;;;;;18.02;15.60;;;6.20;99.90;;;;;;4897954;29;21023;-93
2023/04/19 03:07:19;;;;;;;16.38;14.02;;;5.50;99.90;;;;;;4902480;29;20427;-95
2023/04/19 03:09:50;;;;;;;15.87;14.17;;;5.80;99.90;;;;;;4901728;29;20412;-93
2023/04/19 03:12:16;;;;;;;15.82;13.35;;;5.50;99.90;;;;;;4898400;29;20620;-93
2023/04/19 03:14:42;;;;;;;14.63;13.13;;;5.40;99.90;;;;;;4899695;29;20461;-93
2023/04/19 03:17:08;;;;;;;14.20;12.00;;;5.50;99.90;;;;;;4898172;29;20411;-95
2023/04/19 03:19:34;;;;;;;14.48;12.65;;;5.60;99.90;;;;;;4899260;29;20426;-95
2023/04/19 03:22:17;;;;;;;14.10;11.55;;;5.50;99.90;;;;;;4898970;29;20408;-96
2023/04/19 03:24:43;;;;;;;14.75;12.20;;;5.50;99.90;;;;;;4896287;29;20937;-93
2023/04/19 03:27:18;;;;;;;12.90;11.33;;;5.50;99.90;;;;;;4897573;29;20450;-95
2023/04/19 03:29:44;;;;;;;12.23;10.80;;;5.50;99.90;;;;;;4896934;29;20408;-92
2023/04/19 03:32:09;;;;;;;14.15;11.27;;;5.40;99.90;;;;;;4896450;29;20427;-91
2023/04/19 03:34:35;;;;;;;12.27;10.98;;;5.30;99.90;;;;;;4896583;29;20498;-92
2023/04/19 03:37:01;;;;;;;13.77;11.53;;;5.10;99.90;;;;;;4896548;29;20435;-92
2023/04/19 03:39:27;;;;;;;13.27;11.83;;;5.50;99.90;;;;;;4896294;29;20963;-91
2023/04/19 03:41:52;;;;;;;15.38;12.93;;;5.20;99.90;;;;;;4896048;29;20945;-91
2023/04/19 03:44:18;;;;;;;14.90;12.68;;;5.10;99.90;;;;;;4897326;29;20418;-90
2023/04/19 03:46:45;;;;;;;14.23;12.82;;;5.10;99.90;;;;;;4895783;29;20462;-92
2023/04/19 03:49:11;;;;;;;14.33;12.47;;;5.10;99.90;;;;;;4896627;29;20637;-91
2023/04/19 03:51:36;;;;;;;13.37;11.97;;;5.00;99.90;;;;;;4896440;29;20988;-92
2023/04/19 03:54:02;;;;;;;14.57;12.27;;;5.00;99.90;;;;;;4896661;29;20423;-91
2023/04/19 03:56:28;;;;;;;14.00;12.60;;;4.90;99.90;;;;;;4897203;29;20837;-91
2023/04/19 03:58:54;;;;;;;14.32;12.27;;;4.80;99.90;;;;;;4896758;29;20416;-93
2023/04/19 04:01:21;;;;;;;14.70;12.70;;;4.80;99.90;;;;;;4896455;29;20476;-94
2023/04/19 04:03:47;;;;;;;14.30;12.77;;;4.70;99.90;;;;;;4895277;29;20415;-93
2023/04/19 04:06:13;;;;;;;14.13;12.27;;;4.90;99.90;;;;;;4896937;29;20408;-92
2023/04/19 04:08:38;;;;;;;14.63;13.05;;;4.60;99.90;;;;;;4895854;29;20416;-92
2023/04/19 04:11:04;;;;;;;14.73;12.00;;;4.60;99.90;;;;;;4896117;29;20412;-92
2023/04/19 04:13:30;;;;;;;13.98;12.07;;;4.50;99.90;;;;;;4895732;29;20404;-92
2023/04/19 04:15:55;;;;;;;14.83;12.40;;;4.50;99.90;;;;;;4895991;29;21023;-91
2023/04/19 04:18:22;;;;;;;15.13;12.77;;;4.30;99.90;;;;;;4895828;29;20493;-92
2023/04/19 04:20:48;;;;;;;13.87;12.37;;;4.40;99.90;;;;;;4894777;29;20812;-92
2023/04/19 04:23:13;;;;;;;14.30;12.80;;;4.40;99.90;;;;;;4896459;29;20430;-92
2023/04/19 04:25:42;;;;;;;13.53;12.13;;;4.50;99.90;;;;;;4910279;29;20427;-94
2023/04/19 04:28:08;;;;;;;14.75;12.70;;;4.30;99.90;;;;;;4896660;29;20474;-91
2023/04/19 04:30:34;;;;;;;14.60;12.88;;;4.30;99.90;;;;;;4895467;29;20408;-92
2023/04/19 04:33:00;;;;;;;14.77;12.68;;;4.20;99.90;;;;;;4897836;29;20420;-93
2023/04/19 04:35:29;;;;;;;14.57;12.53;;;4.10;99.90;;;;;;4901583;29;20430;-96
2023/04/19 04:37:55;;;;;;;16.00;12.43;;;4.20;99.90;;;;;;4897170;29;20454;-94
2023/04/19 04:40:22;;;;;;;14.55;12.88;;;4.40;99.90;;;;;;4915818;29;20436;-92
2023/04/19 04:42:48;;;;;;;14.23;12.20;;;4.50;99.90;;;;;;4901037;29;20422;-95
2023/04/19 04:45:27;;;;;;;14.03;12.03;;;4.20;99.90;;;;;;4901171;29;20499;-94
2023/04/19 04:47:53;;;;;;;15.10;11.57;;;4.20;99.90;;;;;;4897797;29;20427;-91
2023/04/19 04:50:19;;;;;;;13.32;11.88;;;4.40;99.90;;;;;;4889796;29;20423;-94
2023/04/19 04:52:45;;;;;;;13.65;11.23;;;4.20;99.90;;;;;;4864504;29;20509;-92
2023/04/19 04:55:13;;;;;;;11.97;10.77;;;4.20;99.90;;;;;;4860856;29;20511;-93
2023/04/19 04:57:43;;;;;;;13.82;11.50;;;4.20;99.90;;;;;;4857331;29;20486;-95
2023/04/19 05:00:34;;;;;;;13.05;11.13;;;4.50;99.90;;;;;;4867997;29;20471;-94
2023/04/19 05:03:18;;;;;;;13.75;10.90;;;4.30;99.90;;;;;;4862269;29;20423;-94
2023/04/19 05:05:46;;;;;;;12.33;10.23;;;4.40;99.90;;;;;;4877717;29;20553;-94
2023/04/19 05:08:17;;;;;;;12.07;10.27;;;4.40;99.90;;;;;;4858856;29;20450;-94
2023/04/19 05:10:43;;;;;;;11.85;10.43;;;4.50;99.90;;;;;;4865620;29;20514;-92
2023/04/19 05:13:08;;;;;;;12.50;10.88;;;4.60;99.90;;;;;;4872564;29;20947;-93
2023/04/19 05:15:37;;;;;;;12.18;9.93;;;4.60;99.90;;;;;;4873787;29;20417;-94
2023/04/19 05:18:09;;;;;;;11.82;9.77;;;4.70;99.90;;;;;;4882380;29;20413;-94
2023/04/19 05:20:41;;;;;;;11.88;10.32;;;4.80;99.90;;;;;;4881829;29;20935;-95
2023/04/19 05:23:12;;;;;;;13.75;9.30;;;4.80;99.90;;;;;;4931726;24;20456;-94
2023/04/19 05:25:38;;;;;;;13.30;9.52;;;5.30;99.90;;;;;;4877413;29;20421;-94
2023/04/19 05:28:04;;;;;;;11.48;9.02;;;4.90;99.90;;;;;;4884131;29;20461;-95
2023/04/19 05:30:30;;;;;;;12.07;9.23;;;5.30;99.90;;;;;;4880599;29;20429;-93
2023/04/19 05:32:55;;;;;;;10.37;8.60;;;5.30;99.90;;;;;;4880721;29;20417;-91
2023/04/19 05:35:21;;;;;;;11.10;8.60;;;5.70;99.90;;;;;;4879560;29;20512;-93
2023/04/19 05:37:47;;;;;;;11.17;8.70;;;5.40;99.90;;;;;;4885777;29;20512;-94
2023/04/19 05:40:24;;;;;;;9.00;7.65;;;5.60;99.90;;;;;;4888907;29;20507;-92
2023/04/19 05:42:53;;;;;;;10.25;7.50;;;5.50;99.90;;;;;;4889094;29;20440;-95
2023/04/19 05:45:20;;;;;;;10.45;7.38;;;5.60;99.90;;;;;;4884293;29;20421;-94
2023/04/19 05:47:46;;;;;;;9.70;7.25;;;6.40;99.90;;;;;;4882226;29;20425;-94
2023/04/19 05:50:13;;;;;;;10.53;7.23;;;6.00;99.90;;;;;;4883496;29;20418;-92
2023/04/19 05:52:39;;;;;;;8.60;6.65;;;6.00;99.90;;;;;;4885938;29;20497;-93
2023/04/19 05:55:05;;;;;;;10.63;6.72;;;6.20;99.90;;;;;;4882118;29;20421;-92
2023/04/19 05:57:31;;;;;;;9.65;6.45;;;6.20;99.90;;;;;;4886181;29;20425;-92
2023/04/19 06:00:31;;;;;;;6.90;5.70;;;6.30;99.90;;;;;;4882859;29;20444;-94
2023/04/19 06:02:57;;;;;;;7.75;5.80;;;6.40;99.90;;;;;;4835013;29;20448;-93
2023/04/19 06:05:22;;;;;;;7.83;5.97;;;6.30;99.90;;;;;;4884595;29;20796;-91
2023/04/19 06:08:06;;;;;;;7.77;6.20;;;6.80;99.90;;;;;;4885847;29;20606;-95
2023/04/19 06:10:42;;;;;;;7.07;5.97;;;6.80;99.90;;;;;;4891400;29;20417;-96
2023/04/19 06:13:25;;;;;;;7.13;5.20;;;6.80;99.90;;;;;;4885706;29;20409;-94
2023/04/19 06:15:57;;;;;;;6.53;4.93;;;7.40;99.90;;;;;;4887335;29;20433;-95
2023/04/19 06:18:23;;;;;;;8.13;5.28;;;7.50;99.90;;;;;;4882438;29;20433;-94
2023/04/19 06:20:49;;;;;;;6.47;4.90;;;7.50;99.90;;;;;;4887063;29;20532;-92
2023/04/19 06:23:17;;;;;;;5.55;5.00;;;7.60;99.90;;;;;;4881732;29;20465;-95
2023/04/19 06:25:47;;;;;;;6.07;5.40;;;7.50;99.90;;;;;;4882566;29;20440;-96
2023/04/19 06:28:13;;;;;;;7.10;5.40;;;7.50;99.90;;;;;;4880355;29;20501;-95
2023/04/19 06:30:39;;;;;;;7.57;5.17;;;8.40;99.90;;;;;;4884032;29;20417;-95
2023/04/19 06:33:05;;;;;;;7.27;5.23;;;8.00;99.90;;;;;;4882024;29;20420;-94
2023/04/19 06:35:31;;;;;;;6.40;4.80;;;8.60;99.90;;;;;;4893420;29;20432;-93
2023/04/19 06:37:57;;;;;;;6.45;5.40;;;8.00;99.90;;;;;;4881908;29;20413;-90
2023/04/19 06:40:23;;;;;;;5.40;4.53;;;7.90;99.90;;;;;;4884853;29;20540;-94
2023/04/19 06:42:52;;;;;;;5.18;4.43;;;8.20;99.90;;;;;;4882851;29;20448;-94
2023/04/19 06:45:21;;;;;;;6.43;4.53;;;8.60;99.90;;;;;;4883424;29;20770;-91
2023/04/19 06:47:52;;;;;;;5.80;3.78;;;8.70;99.90;;;;;;4884573;29;20425;-94
2023/04/19 06:50:30;;;;;;;5.75;4.30;;;8.40;99.90;;;;;;4885732;29;20440;-94
2023/04/19 06:53:05;;;;;;;4.72;4.05;;;8.70;99.90;;;;;;4883660;29;20919;-94
2023/04/19 06:55:33;;;;;;;4.03;3.53;;;8.60;99.90;;;;;;4881022;29;20469;-93
2023/04/19 06:58:10;;;;;;;4.57;3.80;;;9.30;99.90;;;;;;4860052;29;20428;-94
2023/04/19 07:00:53;;;;;;;4.77;3.40;;;8.90;99.90;;;;;;4830020;29;20813;-96
2023/04/19 07:03:32;;;;;;;4.50;3.30;;;8.80;98.60;;;;;;4825959;29;20970;-96
2023/04/19 07:05:57;;;;;;;5.20;3.10;;;9.30;99.90;;;;;;4830288;29;20513;-94
2023/04/19 07:08:41;;;;;;;4.33;2.67;;;9.20;98.50;;;;;;4828762;29;20459;-94
2023/04/19 07:11:09;;;;;;;4.65;3.05;;;9.30;98.00;;;;;;4843831;29;20467;-96
2023/04/19 07:13:35;;;;;;;4.75;3.10;;;9.40;95.50;;;;;;4821058;29;20522;-94
2023/04/19 07:16:09;;;;;;;4.60;2.83;;;9.50;96.80;;;;;;4830021;29;20465;-93
2023/04/19 07:18:43;;;;;;;4.45;2.85;;;9.60;95.60;;;;;;4837702;29;20466;-94
2023/04/19 07:21:14;;;;;;;4.38;2.90;;;9.70;93.00;;;;;;4835765;29;20456;-95
2023/04/19 07:23:40;;;;;;;3.80;2.87;;;10.20;94.40;;;;;;4834798;29;20470;-92
2023/04/19 07:26:09;;;;;;;4.67;3.17;;;9.80;90.50;;;;;;4825241;29;20426;-94
2023/04/19 07:28:35;;;;;;;5.33;3.20;;;9.90;95.30;;;;;;4845980;29;20463;-92
2023/04/19 07:31:27;;;;;;;4.70;3.00;;;10.10;94.30;;;;;;4883754;29;20512;-96
2023/04/19 07:33:56;;;;;;;4.28;2.72;;;10.10;86.90;;;;;;4882774;29;20512;-95
2023/04/19 07:36:24;;;;;;;4.15;2.65;;;10.40;85.00;;;;;;4882184;29;20417;-95
2023/04/19 07:38:50;;;;;;;4.57;2.33;;;10.20;89.20;;;;;;4885008;29;20432;-92
2023/04/19 07:41:28;;;;;;;3.63;2.60;;;11.00;85.40;;;;;;4887727;29;20445;-94
2023/04/19 07:43:53;;;;;;;2.90;2.03;;;10.80;87.90;;;;;;4883623;29;20448;-93
2023/04/19 07:46:28;;;;;;;2.80;1.98;;;10.70;83.80;;;;;;4887859;29;20407;-95
2023/04/19 07:48:57;;;;;;;2.25;1.55;;;10.60;78.80;;;;;;4895344;29;20897;-94
2023/04/19 07:51:55;;;;;;;3.97;1.63;;;10.90;71.10;;;;;;4887609;29;20437;-94
2023/04/19 07:57:24;;;;;;;2.78;1.40;;;10.90;69.00;;;;;;4887135;29;20413;-93
2023/04/19 07:59:50;;;;;;;3.60;2.05;;;11.10;69.00;;;;;;4886264;29;20411;-93
2023/04/19 08:02:17;;;;;;;2.40;1.35;;;11.20;74.60;;;;;;4871007;29;20433;-94
2023/04/19 08:04:46;;;;;;;3.40;1.65;;;11.20;71.60;;;;;;4873361;29;20413;-93
2023/04/19 08:07:16;;;;;;;2.65;1.60;;;11.30;67.90;;;;;;4887673;29;20452;-93
2023/04/19 08:09:42;;;;;;;3.00;1.50;;;11.40;67.40;;;;;;4875636;29;20417;-94
2023/04/19 08:12:08;;;;;;;4.40;1.80;;;11.60;66.10;;;;;;4872558;29;20427;-94
2023/04/19 08:14:33;;;;;;;2.50;1.52;;;11.60;66.80;;;;;;4873993;29;20941;-94
2023/04/19 08:17:03;;;;;;;2.83;1.50;;;11.70;67.40;;;;;;4869264;29;20417;-94
2023/04/19 08:19:29;;;;;;;3.53;1.67;;;12.00;69.30;;;;;;4875375;29;20419;-93
2023/04/19 08:21:55;;;;;;;2.77;1.30;;;11.90;66.20;;;;;;4873683;29;20504;-95
2023/04/19 08:24:21;;;;;;;3.30;1.50;;;11.90;60.70;;;;;;4868672;29;20432;-93
2023/04/19 08:26:52;;;;;;;2.30;1.30;;;12.20;65.00;;;;;;4868272;29;20503;-92
2023/04/19 08:29:19;;;;;;;2.30;1.50;;;12.10;61.20;;;;;;4870511;29;20422;-94
2023/04/19 08:31:45;;;;;;;2.60;1.37;;;12.10;63.80;;;;;;4868994;29;20424;-95
2023/04/19 08:34:11;;;;;;;4.70;1.58;;;12.30;64.00;;;;;;4867732;29;20421;-93
2023/04/19 08:36:37;;;;;;;2.63;1.27;;;12.40;65.20;;;;;;4869474;29;20446;-94
2023/04/19 08:39:03;;;;;;;2.58;1.50;;;12.40;62.50;;;;;;4867645;29;20746;-93
2023/04/19 08:41:31;;;;;;;3.88;1.35;;;12.90;61.20;;;;;;4868418;29;20478;-92
2023/04/19 08:43:58;;;;;;;2.10;1.30;;;12.90;58.60;;;;;;4867026;29;20420;-93
2023/04/19 08:46:25;;;;;;;3.10;1.23;;;12.70;58.30;;;;;;4862056;29;20773;-91
2023/04/19 08:48:53;;;;;;;2.30;1.30;;;12.90;61.90;;;;;;4868006;29;20432;-92
2023/04/19 08:51:25;;;;;;;2.60;1.20;;;13.00;58.60;;;;;;4864818;29;20955;-93
2023/04/19 08:53:53;;;;;;;3.40;1.30;;;12.80;58.70;;;;;;4860456;29;20431;-93
2023/04/19 08:56:20;;;;;;;2.90;0.82;;;13.00;57.20;;;;;;4870386;29;20435;-91
2023/04/19 08:58:46;;;;;;;1.90;1.00;;;13.10;57.20;;;;;;4863946;29;20477;-93
2023/04/19 09:01:14;;;;;;;1.73;0.90;;;13.10;57.20;;;;;;4869620;29;20439;-94
2023/04/19 09:03:45;;;;;;;2.03;0.80;;;13.10;57.70;;;;;;4861610;29;21135;-89
2023/04/19 09:06:11;;;;;;;2.60;1.10;;;13.10;55.70;;;;;;4858631;29;20418;-93
2023/04/19 09:08:38;;;;;;;2.57;0.73;;;13.20;54.60;;;;;;4860779;29;20758;-95
2023/04/19 09:11:04;;;;;;;2.65;0.80;;;13.20;54.40;;;;;;4858856;29;21020;-93
2023/04/19 09:13:31;;;;;;;2.17;1.05;;;13.00;54.30;;;;;;4860799;29;20454;-91
2023/04/19 09:15:59;;;;;;;2.40;0.98;;;13.50;56.50;;;;;;4860506;29;20438;-94
2023/04/19 09:18:25;;;;;;;2.73;0.90;;;13.40;54.50;;;;;;4859471;29;20824;-93
2023/04/19 09:20:56;;;;;;;1.37;0.60;;;13.70;53.90;;;;;;4861030;29;20533;-94
2023/04/19 09:23:24;;;;;;;2.33;0.80;;;13.50;50.30;;;;;;4858769;29;20995;-93
2023/04/19 09:26:01;;;;;;;2.15;0.85;;;13.60;50.70;;;;;;4860424;29;20466;-93
2023/04/19 09:28:28;;;;;;;1.58;0.90;;;13.50;52.90;;;;;;4859933;29;20434;-92
2023/04/19 09:30:57;;;;;;;2.47;1.08;;;14.00;53.70;;;;;;4860064;29;20419;-92
2023/04/19 09:33:34;;;;;;;2.00;1.00;;;14.00;52.60;;;;;;4860948;29;20569;-94
2023/04/19 09:36:00;;;;;;;4.32;1.05;;;13.80;52.70;;;;;;4859283;29;20423;-92
2023/04/19 09:38:48;;;;;;;2.33;0.95;;;13.90;52.40;;;;;;4860886;29;20422;-93
2023/04/19 09:41:36;;;;;;;2.22;0.80;;;13.90;53.30;;;;;;4858261;29;20439;-93
2023/04/19 09:44:14;;;;;;;2.90;0.90;;;14.10;52.80;;;;;;4860611;29;20426;-93
2023/04/19 09:46:45;;;;;;;2.20;1.07;;;14.50;52.90;;;;;;4859584;29;20419;-93
2023/04/19 09:49:19;;;;;;;2.70;0.70;;;14.60;52.10;;;;;;4860168;29;20431;-94
2023/04/19 09:51:46;;;;;;;1.75;0.70;;;14.60;50.50;;;;;;4860278;29;20434;-93
2023/04/19 09:54:13;;;;;;;2.10;0.80;;;14.60;52.30;;;;;;4858607;29;20758;-93
2023/04/19 09:56:40;;;;;;;2.07;0.77;;;14.90;52.00;;;;;;4860318;29;20455;-93
2023/04/19 09:59:06;;;;;;;2.40;0.80;;;15.00;50.00;;;;;;4858214;29;20423;-93
2023/04/19 10:01:39;;;;;;;4.40;0.80;;;15.30;50.00;;;;;;4860833;29;20443;-94
2023/04/19 10:04:08;;;;;;;3.30;0.90;;;15.30;49.10;;;;;;4859096;29;20423;-93
2023/04/19 10:06:35;;;;;;;2.88;0.80;;;15.70;49.20;;;;;;4859706;29;20450;-94
2023/04/19 10:09:03;;;;;;;2.60;0.80;;;15.70;49.50;;;;;;4859317;29;20426;-94
2023/04/19 10:11:37;;;;;;;2.03;0.70;;;15.90;49.20;;;;;;4858531;29;20569;-93
2023/04/19 10:14:08;;;;;;;1.88;0.60;;;16.20;48.60;;;;;;4860351;29;20434;-95
2023/04/19 10:16:35;;;;;;;2.80;0.52;;;16.40;46.90;;;;;;4858801;29;20427;-93
2023/04/19 10:19:08;;;;;;;2.42;0.52;;;16.70;44.70;;;;;;4862994;29;20415;-93
2023/04/19 10:21:35;;;;;;;1.55;0.55;;;16.90;43.90;;;;;;4862380;29;20487;-94
2023/04/19 10:24:01;;;;;;;1.33;0.50;;;17.30;45.10;;;;;;4864032;29;20427;-93
2023/04/19 10:26:27;;;;;;;1.40;0.40;;;17.70;42.70;;;;;;4883767;29;20501;-94
2023/04/19 10:28:57;;;;;;;1.63;0.40;;;18.00;42.60;;;;;;4882325;29;20421;-93
2023/04/19 10:31:26;;;;;;;2.22;0.40;;;18.20;39.80;;;;;;4883458;29;20516;-94
2023/04/19 10:33:58;;;;;;;1.40;0.40;;;18.40;40.40;;;;;;4881704;29;20714;-94
2023/04/19 10:36:27;;;;;;;1.63;0.47;;;18.50;41.20;;;;;;4883954;29;20421;-92
2023/04/19 10:39:00;;;;;;;1.58;0.30;;;18.70;41.40;;;;;;4884333;29;20432;-96
2023/04/19 10:41:56;;;;;;;2.30;0.25;;;19.00;42.10;;;;;;4886153;29;20945;-87
2023/04/19 10:44:22;;;;;;;2.63;0.40;;;19.10;38.80;;;;;;4882524;29;20488;-95
2023/04/19 10:46:48;;;;;;;1.38;0.32;;;19.20;39.40;;;;;;4886203;29;20461;-94
2023/04/19 10:49:16;;;;;;;2.97;0.30;;;19.30;39.20;;;;;;4885715;29;20922;-95
2023/04/19 10:51:51;;;;;;;1.55;0.30;;;19.50;38.70;;;;;;4886342;29;20453;-95
2023/04/19 10:54:47;;;;;;;48.40;14.80;;;19.50;37.50;;;;;;4885092;29;20421;-93
2023/04/19 10:57:15;;;;;;;2.90;0.50;;;19.60;37.70;;;;;;4885948;29;20457;-94
2023/04/19 10:59:43;;;;;;;2.85;0.40;;;19.70;39.30;;;;;;4886299;29;20417;-95
2023/04/19 11:02:24;;;;;;;19.42;5.07;;;20.00;40.40;;;;;;4884076;29;20452;-91
2023/04/19 11:04:56;;;;;;;5.75;1.50;;;20.20;39.50;;;;;;4884599;29;20432;-94
2023/04/19 11:07:23;;;;;;;4.32;0.63;;;20.30;37.50;;;;;;4883362;29;20484;-94
2023/04/19 11:09:52;;;;;;;2.45;0.35;;;20.00;36.30;;;;;;4885376;29;20421;-93
2023/04/19 11:12:23;;;;;;;1.53;0.40;;;20.40;36.60;;;;;;4882717;29;20410;-93
2023/04/19 11:14:56;;;;;;;2.55;0.40;;;20.50;36.80;;;;;;4884110;29;20421;-93
2023/04/19 11:17:30;;;;;;;2.42;0.55;;;20.30;35.30;;;;;;4880908;29;20425;-95
2023/04/19 11:20:01;;;;;;;2.60;0.70;;;20.20;36.40;;;;;;4882077;29;20429;-94
2023/04/19 11:22:46;;;;;;;2.22;0.50;;;20.20;36.40;;;;;;4880960;29;20437;-93
2023/04/19 11:25:20;;;;;;;9.85;2.92;;;20.30;38.10;;;;;;4862176;29;20419;-90
2023/04/19 11:27:51;;;;;;;2.72;0.47;;;20.50;37.20;;;;;;4861475;29;20425;-92
2023/04/19 11:30:28;;;;;;;2.30;0.60;;;20.60;36.50;;;;;;4859680;29;20438;-94
2023/04/19 11:32:55;;;;;;;3.10;0.70;;;20.60;37.70;;;;;;4862464;29;20503;-90
2023/04/19 11:35:29;;;;;;;2.28;0.57;;;20.70;38.40;;;;;;4859884;29;20411;-92
2023/04/19 11:37:57;;;;;;;3.07;1.10;;;20.90;36.40;;;;;;4862064;29;20454;-93
2023/04/19 11:40:25;;;;;;;2.50;0.80;;;21.20;36.30;;;;;;4860213;29;20453;-93
2023/04/19 11:42:59;;;;;;;2.75;0.65;;;20.90;36.10;;;;;;4862336;29;20439;-93
2023/04/19 11:45:34;;;;;;;2.10;0.52;;;21.10;38.00;;;;;;4860990;29;20443;-94
2023/04/19 11:48:00;;;;;;;3.95;0.60;;;21.00;37.20;;;;;;4860397;29;20916;-93
2023/04/19 11:50:42;;;;;;;1.92;0.70;;;21.10;36.90;;;;;;4861994;29;20512;-95
2023/04/19 11:53:18;;;;;;;2.47;0.70;;;21.00;37.00;;;;;;4862000;29;20419;-92
2023/04/19 11:55:49;;;;;;;2.10;1.00;;;21.10;36.90;;;;;;4861543;29;20486;-93
2023/04/19 11:58:34;;;;;;;2.35;0.80;;;21.30;36.50;;;;;;4859033;29;20439;-93
2023/04/19 12:01:20;;;;;;;1.88;0.60;;;21.20;36.10;;;;;;4860943;29;20459;-94
2023/04/19 12:03:51;;;;;;;2.78;0.90;;;21.10;35.40;;;;;;4861053;29;20505;-90
2023/04/19 12:06:21;;;;;;;2.35;0.70;;;21.20;36.40;;;;;;4858932;29;20415;-92
2023/04/19 12:08:48;;;;;;;2.17;1.00;;;21.30;35.70;;;;;;4861977;29;20459;-95
2023/04/19 12:11:15;;;;;;;3.40;1.10;;;21.40;37.00;;;;;;4859615;29;20932;-92
2023/04/19 12:13:43;;;;;;;2.60;1.10;;;21.30;36.30;;;;;;4860859;29;20502;-93
2023/04/19 12:16:10;;;;;;;2.55;1.20;;;21.30;34.50;;;;;;4860008;29;20431;-93
2023/04/19 12:18:49;;;;;;;2.25;1.40;;;21.30;37.80;;;;;;4860127;29;20423;-90
2023/04/19 12:21:26;;;;;;;3.25;1.60;;;21.40;36.50;;;;;;4860689;29;20446;-92
2023/04/19 12:24:02;;;;;;;6.10;2.63;;;21.50;37.00;;;;;;4868255;29;20443;-95
2023/04/19 12:26:29;;;;;;;3.60;1.70;;;21.50;37.30;;;;;;4879284;29;20516;-93
2023/04/19 12:28:56;;;;;;;3.97;2.45;;;21.40;37.10;;;;;;4878293;29;20420;-92
2023/04/19 12:31:22;;;;;;;4.00;1.75;;;21.60;38.80;;;;;;4879103;29;20493;-93
2023/04/19 12:33:49;;;;;;;3.97;1.98;;;21.60;36.20;;;;;;4877709;29;20456;-94
2023/04/19 12:36:14;;;;;;;3.25;2.00;;;21.60;37.70;;;;;;4877706;29;20410;-93
2023/04/19 12:38:40;;;;;;;4.00;2.00;;;21.90;37.50;;;;;;4879418;29;20473;-92
2023/04/19 12:41:06;;;;;;;3.43;1.80;;;21.70;36.50;;;;;;4877247;29;20581;-91
2023/04/19 12:43:32;;;;;;;3.75;1.75;;;21.60;37.80;;;;;;4878776;29;20417;-92
2023/04/19 12:45:58;;;;;;;2.80;1.80;;;21.50;37.00;;;;;;4876866;29;20508;-94
2023/04/19 12:48:25;;;;;;;2.88;2.30;;;21.50;36.70;;;;;;4879301;29;20424;-94
2023/04/19 12:50:51;;;;;;;4.00;2.25;;;21.60;37.50;;;;;;4877479;29;20433;-89
2023/04/19 12:53:17;;;;;;;3.40;2.20;;;21.30;37.40;;;;;;4878512;29;20428;-92
2023/04/19 12:55:46;;;;;;;5.20;2.35;;;21.30;37.90;;;;;;4877842;29;20409;-93
2023/04/19 12:58:19;;;;;;;3.90;2.38;;;21.60;38.10;;;;;;4877629;29;20444;-92
2023/04/19 13:00:45;;;;;;;4.40;2.22;;;21.30;38.00;;;;;;4878304;29;20452;-93